Archival Weather

Aeroparque Jorge Newbery

Buenos Aires, Argentina (SABE)

Report from: Sunday, March 19, 2023 9:00 PM -03
Current time: Tuesday, July 16, 2024 6:02 AM -03

Current weather – Weather history – Daily summaries
Weather forecast

Temperature26.0°C (78.8°F)
Dew point23.0°C (73.4°F)
Winds 8 kts (4.1 m/s, 9.2 mph) East-Southeast (110°)
Clouds Sky clear
Altimeter29.85 in.Hg (1011 mB)
Relative humidity84 %
Density altitude1,724 ft. (525 m)
Remarks Ceiling and visibility OK
No significant changes expected in the next two hours
Flight conditions Visual Meteorological Conditions
Raw dataSABE 200000Z 11008KT CAVOK 26/23 Q1011 NOSIG RMK PP000
An error has occurred. This application may no longer respond until reloaded. Reload 🗙